Newcastle, Wyoming
Current Conditions -  °F | °C
As of 1:35 AM on Friday 24 Oct 2014 (Local Time) from KECS Reporting Station
Clear Clear  
Wind Chill: 42°   Ceiling: Unl
Heat Index: 45°   Visibility: 10mi
Dew Point: 30°   Wind: 5mph
Humidity: 57%   Direction: 80°E
Pressure: 29.97"   Gusts: NA
Location:  43.85°N, 104.2°W
Report Text: KECS 240735Z AUTO 08004KT 10SM CLR 07/M01 A2997 RMK AO2
Loading
Personal Weather Stations






























Interactive Weather Map
Tropical Storm Tracking
New forecast layout! Learn more

10-Day Weather Forecast

Advertisements
Track Severe Weather on mobile